createdAt,value
2023-03-05T00:06:59.808Z,99563.57
2023-03-05T00:10:05.466Z,99558.21
2023-03-05T00:13:08.413Z,99551.81
2023-03-05T00:16:14.397Z,99547.23
2023-03-05T00:19:17.312Z,99539.19
2023-03-05T00:22:20.215Z,99534.52
2023-03-05T00:25:23.534Z,99528.21
2023-03-05T00:28:26.296Z,99521.75
2023-03-05T00:31:32.293Z,99511.69
2023-03-05T00:34:36.512Z,99516.85
2023-03-05T00:37:39.644Z,99515.02
2023-03-05T00:40:42.442Z,99513.70
2023-03-05T00:43:45.625Z,99509.91
2023-03-05T00:47:18.610Z,99511.84
2023-03-05T00:50:21.930Z,99506.30
2023-03-05T00:53:24.670Z,99499.86
2023-03-05T00:56:33.923Z,99497.29
2023-03-05T00:59:37.347Z,99492.23
2023-03-05T01:02:40.638Z,99491.86
2023-03-05T01:05:43.978Z,99482.02
2023-03-05T01:08:46.838Z,99482.17
2023-03-05T01:11:49.629Z,99468.86
2023-03-05T01:14:52.390Z,99468.77
2023-03-05T01:17:55.293Z,99466.23
2023-03-05T01:20:58.120Z,99467.66
2023-03-05T01:24:00.971Z,99463.06
2023-03-05T01:27:03.890Z,99460.72
2023-03-05T01:30:08.065Z,99449.55
2023-03-05T01:33:10.948Z,99444.94
2023-03-05T01:36:17.063Z,99441.39
2023-03-05T01:39:20.214Z,99442.31
2023-03-05T01:52:25.115Z,99429.98
2023-03-05T01:55:29.804Z,99428.75
2023-03-05T01:58:32.881Z,99430.52
2023-03-05T02:01:42.701Z,99429.86
2023-03-05T02:05:11.271Z,99426.13
2023-03-05T02:08:20.073Z,99420.49
2023-03-05T02:11:22.931Z,99418.20
2023-03-05T02:14:27.066Z,99412.30
2023-03-05T02:18:23.614Z,99404.67
2023-03-05T02:21:41.588Z,99402.88
2023-03-05T02:24:44.406Z,99394.48
2023-03-05T02:28:03.743Z,99392.77
2023-03-05T02:31:10.475Z,99387.04
2023-03-05T02:34:13.257Z,99381.63
2023-03-05T02:37:15.995Z,99375.42
2023-03-05T02:40:19.252Z,99376.66
2023-03-05T02:43:22.029Z,99366.65
2023-03-05T02:46:24.766Z,99364.75
2023-03-05T02:49:28.304Z,99358.44
2023-03-05T02:52:31.828Z,99354.98
2023-03-05T02:55:35.013Z,99345.66
2023-03-05T02:58:37.801Z,99341.48
2023-03-05T03:01:40.698Z,99343.55
2023-03-05T03:04:44.864Z,99336.63
2023-03-05T03:07:47.665Z,99328.52
2023-03-05T03:10:50.476Z,99322.86
2023-03-05T03:13:53.295Z,99322.48
2023-03-05T03:16:56.151Z,99330.19
2023-03-05T03:19:59.026Z,99321.10
2023-03-05T03:23:02.268Z,99312.77
2023-03-05T03:26:05.171Z,99307.23
2023-03-05T03:34:04.107Z,99300.38
2023-03-05T03:37:08.595Z,99301.35
2023-03-05T03:40:12.053Z,99298.02
2023-03-05T03:43:14.854Z,99294.23
2023-03-05T03:51:39.562Z,99286.20
2023-03-05T03:54:42.388Z,99280.83
2023-03-05T03:57:45.292Z,99281.92
2023-03-05T04:00:48.105Z,99274.98
2023-03-05T04:03:50.933Z,99273.15
2023-03-05T04:06:54.091Z,99274.42
2023-03-05T04:14:52.097Z,99261.83
2023-03-05T04:17:54.933Z,99255.30
2023-03-05T04:20:57.727Z,99254.14
2023-03-05T04:24:00.467Z,99248.96
2023-03-05T04:27:03.229Z,99242.20
2023-03-05T04:34:38.335Z,99236.77
2023-03-05T04:37:41.117Z,99236.50
2023-03-05T04:40:45.424Z,99237.07
2023-03-05T04:43:48.289Z,99230.89
2023-03-05T04:46:51.074Z,99226.17
2023-03-05T04:54:41.424Z,99222.95
2023-03-05T04:57:44.743Z,99222.27
2023-03-05T05:00:47.609Z,99217.92
2023-03-05T05:03:50.371Z,99221.23
2023-03-05T05:06:56.201Z,99218.50
2023-03-05T05:09:58.978Z,99213.94
2023-03-05T05:13:02.043Z,99224.99
2023-03-05T05:21:16.235Z,99224.27
2023-03-05T05:24:18.982Z,99219.61
2023-03-05T05:32:18.448Z,99220.17
2023-03-05T05:35:22.699Z,99222.13
2023-03-05T05:38:25.518Z,99221.85
2023-03-05T05:41:28.399Z,99228.00
2023-03-05T05:44:31.247Z,99222.69
2023-03-05T05:47:34.198Z,99226.72
2023-03-05T05:50:39.014Z,99224.02
2023-03-05T05:53:43.179Z,99227.55
2023-03-05T05:56:45.972Z,99223.13
2023-03-05T05:59:48.824Z,99228.54
2023-03-05T06:02:51.701Z,99228.91
2023-03-05T06:05:54.694Z,99233.02
2023-03-05T06:08:57.742Z,99229.87
2023-03-05T06:12:00.551Z,99233.02
2023-03-05T06:15:03.532Z,99230.85
2023-03-05T06:18:06.339Z,99229.34
2023-03-05T06:21:13.121Z,99228.10
2023-03-05T06:24:16.007Z,99230.66
2023-03-05T06:32:07.462Z,99235.52
2023-03-05T06:35:10.303Z,99232.36
2023-03-05T06:38:13.080Z,99233.08
2023-03-05T06:41:19.098Z,99229.83
2023-03-05T06:44:21.915Z,99229.42
2023-03-05T06:47:24.728Z,99231.82
2023-03-05T06:50:27.561Z,99231.02
2023-03-05T06:53:30.434Z,99230.89
2023-03-05T06:56:36.015Z,99230.73
2023-03-05T06:59:38.850Z,99222.92
2023-03-05T07:02:41.770Z,99229.04
2023-03-05T07:05:44.850Z,99228.48
2023-03-05T07:08:48.106Z,99237.16
2023-03-05T07:11:50.877Z,99224.21
2023-03-05T07:14:53.708Z,99226.43
2023-03-05T07:22:33.917Z,99235.06
2023-03-05T07:25:38.516Z,99242.41
2023-03-05T07:28:44.378Z,99238.30
2023-03-05T07:31:47.133Z,99237.98
2023-03-05T07:34:49.990Z,99240.05
2023-03-05T07:37:54.588Z,99237.55
2023-03-05T07:40:57.617Z,99235.29
2023-03-05T07:44:00.429Z,99232.42
2023-03-05T07:47:03.257Z,99226.89
2023-03-05T07:50:06.757Z,99232.58
2023-03-05T07:53:09.579Z,99231.10
2023-03-05T07:56:42.193Z,99224.21
2023-03-05T08:04:34.417Z,99218.36
2023-03-05T08:07:37.295Z,99225.34
2023-03-05T08:10:40.152Z,99221.27
2023-03-05T08:13:44.614Z,99225.07
2023-03-05T08:16:48.510Z,99221.86
2023-03-05T08:24:52.798Z,99230.94
2023-03-05T08:27:55.748Z,99221.45
2023-03-05T08:30:58.627Z,99220.21
2023-03-05T08:34:02.426Z,99213.53
2023-03-05T08:37:06.410Z,99214.71
2023-03-05T08:40:10.699Z,99213.27
2023-03-05T08:43:13.749Z,99217.63
2023-03-05T08:46:17.331Z,99204.36
2023-03-05T08:49:20.316Z,99198.09
2023-03-05T08:52:23.684Z,99199.25
2023-03-05T08:55:26.500Z,99206.84
2023-03-05T08:58:29.974Z,99218.27
2023-03-05T09:01:33.103Z,99210.02
2023-03-05T09:04:37.913Z,99213.88
2023-03-05T09:07:41.300Z,99200.98
2023-03-05T09:10:45.200Z,99194.96
2023-03-05T09:13:48.128Z,99196.12
2023-03-05T09:16:50.871Z,99189.98
2023-03-05T09:19:53.747Z,99186.90
2023-03-05T09:22:56.586Z,99189.38
2023-03-05T09:25:59.534Z,99188.80
2023-03-05T09:29:02.378Z,99180.13
2023-03-05T09:32:05.699Z,99175.27
2023-03-05T09:35:09.304Z,99176.20
2023-03-05T09:38:12.100Z,99173.36
2023-03-05T09:41:17.533Z,99183.02
2023-03-05T09:45:07.942Z,99167.95
2023-03-05T09:48:23.727Z,99166.05
2023-03-05T09:51:31.703Z,99162.95
2023-03-05T09:54:42.553Z,99167.88
2023-03-05T09:57:51.683Z,99162.23
2023-03-05T10:01:45.793Z,99168.20
2023-03-05T10:05:41.313Z,99145.77
2023-03-05T10:09:22.938Z,99153.20
2023-03-05T10:12:43.107Z,99151.99
2023-03-05T10:16:08.137Z,99139.53
2023-03-05T10:19:37.980Z,99144.30
2023-03-05T10:23:16.091Z,99148.76
2023-03-05T10:26:54.528Z,99137.32
2023-03-05T10:30:17.672Z,99141.55
2023-03-05T10:33:26.147Z,99140.52
2023-03-05T10:36:56.185Z,99142.83
2023-03-05T10:40:17.617Z,99125.59
2023-03-05T10:43:45.578Z,99134.31
2023-03-05T10:46:50.183Z,99125.72
2023-03-05T10:49:55.466Z,99138.69
2023-03-05T10:53:10.652Z,99134.36
2023-03-05T10:56:15.344Z,99132.69
2023-03-05T10:59:18.147Z,99136.99
2023-03-05T11:02:23.045Z,99129.33
2023-03-05T11:05:47.098Z,99122.45
2023-03-05T11:08:50.515Z,99127.21
2023-03-05T11:12:16.271Z,99130.13
2023-03-05T11:15:26.633Z,99135.83
2023-03-05T11:18:34.823Z,99131.30
2023-03-05T11:21:37.679Z,99135.02
2023-03-05T11:24:41.804Z,99138.55
2023-03-05T11:27:54.566Z,99132.92
2023-03-05T11:31:04.930Z,99128.55
2023-03-05T11:34:24.387Z,99129.02
2023-03-05T11:37:29.582Z,99142.48
2023-03-05T11:40:36.064Z,99142.10
2023-03-05T11:43:43.887Z,99165.79
2023-03-05T11:46:50.601Z,99139.95
2023-03-05T11:50:00.973Z,99139.14
2023-03-05T11:53:14.026Z,99123.23
2023-03-05T11:56:25.872Z,99107.35
2023-03-05T11:59:35.337Z,99108.71
2023-03-05T12:02:38.879Z,99104.29
2023-03-05T12:05:45.891Z,99097.69
2023-03-05T12:08:54.187Z,99093.27
2023-03-05T12:12:43.921Z,99090.65
2023-03-05T12:16:08.708Z,99092.61
2023-03-05T12:19:23.201Z,99095.09
2023-03-05T12:22:34.122Z,99087.80
2023-03-05T12:25:50.485Z,99092.63
2023-03-05T12:28:55.774Z,99083.92
2023-03-05T12:32:02.176Z,99081.14
2023-03-05T12:35:23.060Z,99071.92
2023-03-05T12:38:31.293Z,99071.98
2023-03-05T12:41:34.710Z,99073.17
2023-03-05T12:44:39.973Z,99069.68
2023-03-05T12:47:43.617Z,99072.70
2023-03-05T12:50:51.612Z,99081.08
2023-03-05T12:53:54.496Z,99090.83
2023-03-05T12:57:00.853Z,99084.85
2023-03-05T13:00:12.084Z,99086.77
2023-03-05T13:03:31.883Z,99080.91
2023-03-05T13:06:36.017Z,99086.08
2023-03-05T13:09:38.902Z,99080.03
2023-03-05T13:12:53.035Z,99082.37
2023-03-05T13:15:57.143Z,99072.80
2023-03-05T13:19:01.983Z,99075.70
2023-03-05T13:22:11.978Z,99067.36
2023-03-05T13:25:20.757Z,99063.92
2023-03-05T13:28:24.110Z,99061.93
2023-03-05T13:31:26.973Z,99067.00
2023-03-05T13:34:46.173Z,99067.63
2023-03-05T13:37:50.137Z,99064.27
2023-03-05T13:41:05.498Z,99051.20
2023-03-05T13:44:22.133Z,99048.11
2023-03-05T13:47:31.183Z,99045.76
2023-03-05T13:50:36.946Z,99044.92
2023-03-05T13:53:39.830Z,99042.88
2023-03-05T13:56:55.014Z,99045.42
2023-03-05T13:59:57.928Z,99040.98
2023-03-05T14:03:20.931Z,99034.11
2023-03-05T14:06:27.938Z,99034.01
2023-03-05T14:09:44.119Z,99030.02
2023-03-05T14:12:50.486Z,99022.88
2023-03-05T14:16:14.918Z,99020.54
2023-03-05T14:19:39.002Z,99018.02
2023-03-05T14:22:44.192Z,99014.30
2023-03-05T14:25:47.229Z,99015.83
2023-03-05T14:28:56.150Z,99014.15
2023-03-05T14:32:28.353Z,99012.39
2023-03-05T14:35:58.445Z,99010.16
2023-03-05T14:39:05.146Z,98999.19
2023-03-05T14:42:15.779Z,99006.02
2023-03-05T14:45:21.822Z,99004.30
2023-03-05T14:48:24.583Z,99008.79
2023-03-05T14:51:27.500Z,99007.67
2023-03-05T14:54:36.183Z,99006.08
2023-03-05T14:57:41.092Z,99005.61
2023-03-05T15:00:44.396Z,99010.05
2023-03-05T15:03:47.914Z,99012.59
2023-03-05T15:06:51.854Z,99008.39
2023-03-05T15:09:54.863Z,99003.56
2023-03-05T15:12:57.871Z,98997.69
2023-03-05T15:16:01.708Z,98994.48
2023-03-05T15:19:04.634Z,98995.34
2023-03-05T15:22:09.396Z,98991.39
2023-03-05T15:25:12.343Z,98991.05
2023-03-05T15:28:15.889Z,98984.54
2023-03-05T15:31:18.781Z,98980.78
2023-03-05T15:34:21.744Z,98980.63
2023-03-05T15:37:26.189Z,98979.61
2023-03-05T15:40:29.566Z,98973.73
2023-03-05T15:43:32.538Z,98978.91
2023-03-05T15:46:35.977Z,98959.95
2023-03-05T15:49:40.234Z,98961.00
2023-03-05T15:52:43.218Z,98965.09
2023-03-05T15:55:46.222Z,98975.77
2023-03-05T15:58:50.807Z,98982.16
2023-03-05T16:01:53.805Z,98986.76
2023-03-05T16:04:56.635Z,98983.23
2023-03-05T16:08:00.632Z,98976.31
2023-03-05T16:11:04.022Z,98972.11
2023-03-05T16:14:09.748Z,98978.74
2023-03-05T16:17:14.027Z,98977.02
2023-03-05T16:20:20.978Z,98987.92
2023-03-05T16:23:24.294Z,98992.86
2023-03-05T16:26:27.250Z,98991.73
2023-03-05T16:29:32.551Z,98991.54
2023-03-05T16:32:38.009Z,98983.98
2023-03-05T16:35:41.208Z,98977.51
2023-03-05T16:38:44.570Z,98980.97
2023-03-05T16:41:48.320Z,98976.64
2023-03-05T16:44:51.862Z,98973.14
2023-03-05T16:47:56.900Z,98972.16
2023-03-05T16:51:00.660Z,98970.02
2023-03-05T16:54:04.461Z,98969.04
2023-03-05T16:57:10.570Z,98972.29
2023-03-05T17:00:14.084Z,98977.98
2023-03-05T17:03:17.043Z,98977.34
2023-03-05T17:06:23.224Z,98977.45
2023-03-05T17:09:26.063Z,98975.16
2023-03-05T17:12:28.962Z,98976.65
2023-03-05T17:15:34.101Z,98972.63
2023-03-05T17:18:37.056Z,98975.07
2023-03-05T17:21:42.321Z,98972.95
2023-03-05T17:24:47.438Z,98970.86
2023-03-05T17:27:51.432Z,98972.40
2023-03-05T17:31:00.154Z,98970.54
2023-03-05T17:34:03.344Z,98966.71
2023-03-05T17:37:06.269Z,98970.83
2023-03-05T17:40:15.089Z,98965.30
2023-03-05T17:43:19.140Z,98971.77
2023-03-05T17:46:22.505Z,98968.36
2023-03-05T17:49:25.741Z,98967.59
2023-03-05T17:52:28.818Z,98969.98
2023-03-05T17:55:32.335Z,98968.98
2023-03-05T17:58:35.860Z,98967.68
2023-03-05T18:01:38.768Z,98971.52
2023-03-05T18:04:43.996Z,98972.45
2023-03-05T18:07:47.357Z,98976.55
2023-03-05T18:10:50.735Z,98976.30
2023-03-05T18:13:53.782Z,98971.86
2023-03-05T18:16:58.285Z,98970.68
2023-03-05T18:20:04.004Z,98969.85
2023-03-05T18:23:07.822Z,98967.00
2023-03-05T18:26:10.827Z,98958.67
2023-03-05T18:29:15.130Z,98956.11
2023-03-05T18:32:26.538Z,98957.32
2023-03-05T18:35:30.271Z,98958.25
2023-03-05T18:38:33.601Z,98953.02
2023-03-05T18:41:37.354Z,98951.67
2023-03-05T18:44:41.240Z,98941.34
2023-03-05T18:47:44.092Z,98939.61
2023-03-05T18:50:52.685Z,98937.52
2023-03-05T18:53:57.598Z,98946.02
2023-03-05T18:57:00.527Z,98943.54
2023-03-05T19:00:03.831Z,98943.21
2023-03-05T19:03:07.678Z,98945.83
2023-03-05T19:06:10.798Z,98944.86
2023-03-05T19:09:44.359Z,98941.81
2023-03-05T19:13:40.447Z,98940.65
2023-03-05T19:16:44.300Z,98941.81
2023-03-05T19:19:54.944Z,98945.40
2023-03-05T19:22:58.419Z,98937.83
2023-03-05T19:26:02.803Z,98936.39
2023-03-05T19:29:06.646Z,98937.06
2023-03-05T19:32:12.939Z,98934.95
2023-03-05T19:35:17.336Z,98939.27
2023-03-05T19:38:20.477Z,98938.19
2023-03-05T19:41:23.793Z,98932.02
2023-03-05T19:44:30.639Z,98939.88
2023-03-05T19:47:33.497Z,98930.02
2023-03-05T19:50:36.342Z,98934.96
2023-03-05T19:53:40.685Z,98932.29
2023-03-05T19:56:45.427Z,98930.73
2023-03-05T19:59:52.063Z,98930.05
2023-03-05T20:02:55.243Z,98929.75
2023-03-05T20:05:58.055Z,98929.91
2023-03-05T20:09:02.102Z,98928.56
2023-03-05T20:12:05.740Z,98930.08
2023-03-05T20:15:08.791Z,98931.60
2023-03-05T20:18:11.658Z,98926.37
2023-03-05T20:21:21.573Z,98927.00
2023-03-05T20:24:24.390Z,98924.61
2023-03-05T20:27:27.297Z,98928.34
2023-03-05T20:30:30.702Z,98929.43
2023-03-05T20:33:33.745Z,98931.23
2023-03-05T20:36:37.103Z,98926.52
2023-03-05T20:39:40.368Z,98926.61
2023-03-05T20:42:43.683Z,98925.63
2023-03-05T20:45:47.624Z,98921.04
2023-03-05T20:48:53.239Z,98920.12
2023-03-05T20:51:56.040Z,98917.37
2023-03-05T20:54:59.152Z,98912.39
2023-03-05T20:58:02.062Z,98908.67
2023-03-05T21:01:05.187Z,98912.58
2023-03-05T21:04:08.503Z,98915.09
2023-03-05T21:07:11.364Z,98918.49
2023-03-05T21:10:16.561Z,98917.63
2023-03-05T21:13:19.825Z,98917.14
2023-03-05T21:16:25.530Z,98916.60
2023-03-05T21:19:28.389Z,98913.81
2023-03-05T21:22:32.492Z,98897.92
2023-03-05T21:25:35.736Z,98895.98
2023-03-05T21:28:40.238Z,98892.75
2023-03-05T21:31:43.002Z,98890.34
2023-03-05T21:34:45.827Z,98891.84
2023-03-05T21:37:48.788Z,98891.09
2023-03-05T21:40:54.028Z,98890.52
2023-03-05T21:43:57.607Z,98891.98
2023-03-05T21:47:00.389Z,98885.09
2023-03-05T21:50:06.029Z,98883.98
2023-03-05T21:53:09.358Z,98879.52
2023-03-05T21:56:26.106Z,98878.84
2023-03-05T21:59:28.926Z,98874.78
2023-03-05T22:02:32.494Z,98873.35
2023-03-05T22:05:35.376Z,98863.66
2023-03-05T22:08:42.101Z,98859.89
2023-03-05T22:11:45.154Z,98855.04
2023-03-05T22:14:48.294Z,98851.17
2023-03-05T22:17:51.176Z,98843.23
2023-03-05T22:20:55.064Z,98844.48
2023-03-05T22:23:58.539Z,98838.67
2023-03-05T22:27:02.060Z,98839.94
2023-03-05T22:30:05.962Z,98833.02
2023-03-05T22:33:09.736Z,98831.77
2023-03-05T22:36:12.970Z,98832.93
2023-03-05T22:39:15.877Z,98821.89
2023-03-05T22:42:18.732Z,98823.39
2023-03-05T22:45:21.526Z,98820.23
2023-03-05T22:48:24.302Z,98808.02
2023-03-05T22:51:27.167Z,98810.91
2023-03-05T22:54:30.048Z,98810.87
2023-03-05T22:57:33.336Z,98807.54
2023-03-05T23:00:36.728Z,98805.15
2023-03-05T23:03:40.498Z,98803.52
2023-03-05T23:06:43.424Z,98798.92
2023-03-05T23:09:51.948Z,98805.02
2023-03-05T23:12:56.530Z,98805.89
2023-03-05T23:15:59.405Z,98801.92
2023-03-05T23:19:02.196Z,98799.00
2023-03-05T23:22:07.074Z,98799.52
2023-03-05T23:25:10.390Z,98800.02
2023-03-05T23:28:13.337Z,98794.39
2023-03-05T23:31:19.824Z,98801.54
2023-03-05T23:34:23.049Z,98800.76
2023-03-05T23:37:25.778Z,98796.69
2023-03-05T23:40:34.958Z,98796.52
2023-03-05T23:43:37.819Z,98792.41
2023-03-05T23:46:40.644Z,98792.42
2023-03-05T23:49:43.403Z,98791.86
2023-03-05T23:52:46.908Z,98782.94
2023-03-05T23:55:50.817Z,98781.89
2023-03-05T23:58:56.253Z,98781.88
